Las Vegas, Nevada
Current Conditions -  °F | °C
As of 5:56 PM on Tuesday 21 Oct 2014 (Local Time) from KLAS Reporting Station
Scattered Clouds Scattered Clouds  
Wind Chill: 81°   Ceiling: Unl
Heat Index: 81°   Visibility: 10mi
Dew Point: 19°   Wind: 14mph
Humidity: 10%   Direction: 210°SSW
Pressure: 29.77"   Gusts: NA
Location:  36.17°N, 115.13°W
Report Text: KLAS 220056Z 21012KT 10SM FEW200 SCT250 27/M07 A2977 RMK AO2 SLP060 T02721072
Loading
Personal Weather Stations






























Interactive Weather Map New forecast layout! Learn more

10-Day Weather Forecast

Advertisements
Track Severe Weather on mobile